sensor_id;sensor_type;location;lat;lon;timestamp;pressure;altitude;pressure_sealevel;temperature;humidity
8294;BME280;4185;41.506;24.938;2022-11-20T00:01:19;93226.56;;;17.32;66.13
8294;BME280;4185;41.506;24.938;2022-11-20T00:03:46;93229.44;;;17.26;66.27
8294;BME280;4185;41.506;24.938;2022-11-20T00:06:15;93242.22;;;17.24;66.80
8294;BME280;4185;41.506;24.938;2022-11-20T00:08:42;93227.25;;;17.25;66.52
8294;BME280;4185;41.506;24.938;2022-11-20T00:11:11;93222.06;;;17.21;66.63
8294;BME280;4185;41.506;24.938;2022-11-20T00:13:38;93223.53;;;17.22;66.57
8294;BME280;4185;41.506;24.938;2022-11-20T00:16:09;93230.84;;;17.20;66.82
8294;BME280;4185;41.506;24.938;2022-11-20T00:18:36;93261.44;;;17.24;66.61
8294;BME280;4185;41.506;24.938;2022-11-20T00:21:03;93282.94;;;17.33;66.00
8294;BME280;4185;41.506;24.938;2022-11-20T00:23:30;93259.69;;;17.34;65.74
8294;BME280;4185;41.506;24.938;2022-11-20T00:26:01;93268.13;;;17.36;65.59
8294;BME280;4185;41.506;24.938;2022-11-20T00:28:28;93266.47;;;17.33;66.08
8294;BME280;4185;41.506;24.938;2022-11-20T00:31:00;93259.53;;;17.32;65.67
8294;BME280;4185;41.506;24.938;2022-11-20T00:33:29;93254.81;;;17.40;65.20
8294;BME280;4185;41.506;24.938;2022-11-20T00:35:59;93246.38;;;17.38;65.47
8294;BME280;4185;41.506;24.938;2022-11-20T00:38:27;93237.63;;;17.39;65.15
8294;BME280;4185;41.506;24.938;2022-11-20T00:40:57;93239.72;;;17.46;64.67
8294;BME280;4185;41.506;24.938;2022-11-20T00:43:25;93217.97;;;17.48;64.87
8294;BME280;4185;41.506;24.938;2022-11-20T00:45:56;93242.97;;;17.45;65.04
8294;BME280;4185;41.506;24.938;2022-11-20T00:48:23;93231.03;;;17.42;65.17
8294;BME280;4185;41.506;24.938;2022-11-20T00:50:51;93253.34;;;17.39;65.24
8294;BME280;4185;41.506;24.938;2022-11-20T00:53:18;93244.22;;;17.44;64.75
8294;BME280;4185;41.506;24.938;2022-11-20T00:55:53;93250.16;;;17.48;64.76
8294;BME280;4185;41.506;24.938;2022-11-20T00:58:20;93239.81;;;17.41;64.82
8294;BME280;4185;41.506;24.938;2022-11-20T01:00:47;93251.47;;;17.34;64.93
8294;BME280;4185;41.506;24.938;2022-11-20T01:03:14;93248.34;;;17.30;64.96
8294;BME280;4185;41.506;24.938;2022-11-20T01:05:41;93246.78;;;17.21;65.14
8294;BME280;4185;41.506;24.938;2022-11-20T01:08:10;93250.44;;;17.24;64.78
8294;BME280;4185;41.506;24.938;2022-11-20T01:10:37;93242.44;;;17.26;64.92
8294;BME280;4185;41.506;24.938;2022-11-20T01:13:03;93254.91;;;17.27;64.62
8294;BME280;4185;41.506;24.938;2022-11-20T01:15:48;93248.13;;;17.28;64.36
8294;BME280;4185;41.506;24.938;2022-11-20T01:18:14;93234.59;;;17.30;64.28
8294;BME280;4185;41.506;24.938;2022-11-20T01:20:41;93242.63;;;17.28;64.37
8294;BME280;4185;41.506;24.938;2022-11-20T01:23:09;93213.91;;;17.29;63.98
8294;BME280;4185;41.506;24.938;2022-11-20T01:25:36;93246.31;;;17.30;63.91
8294;BME280;4185;41.506;24.938;2022-11-20T01:28:03;93247.38;;;17.27;64.29
8294;BME280;4185;41.506;24.938;2022-11-20T01:30:30;93303.34;;;17.24;64.30
8294;BME280;4185;41.506;24.938;2022-11-20T01:32:57;93237.34;;;17.30;64.12
8294;BME280;4185;41.506;24.938;2022-11-20T01:35:23;93245.16;;;17.26;64.09
8294;BME280;4185;41.506;24.938;2022-11-20T01:37:50;93250.66;;;17.26;63.92
8294;BME280;4185;41.506;24.938;2022-11-20T01:40:18;93245.31;;;17.41;63.12
8294;BME280;4185;41.506;24.938;2022-11-20T01:43:10;93273.63;;;17.36;63.20
8294;BME280;4185;41.506;24.938;2022-11-20T01:46:04;93244.09;;;17.29;63.34
8294;BME280;4185;41.506;24.938;2022-11-20T01:48:35;93250.31;;;17.29;63.25
8294;BME280;4185;41.506;24.938;2022-11-20T01:51:05;93257.66;;;17.27;63.57
8294;BME280;4185;41.506;24.938;2022-11-20T01:53:35;93257.81;;;17.29;63.46
8294;BME280;4185;41.506;24.938;2022-11-20T01:56:07;93256.34;;;17.28;63.26
8294;BME280;4185;41.506;24.938;2022-11-20T01:58:38;93260.56;;;17.29;63.41
8294;BME280;4185;41.506;24.938;2022-11-20T02:01:08;93255.69;;;17.35;62.92
8294;BME280;4185;41.506;24.938;2022-11-20T02:03:35;93246.31;;;17.30;63.46
8294;BME280;4185;41.506;24.938;2022-11-20T02:06:06;93258.44;;;17.35;63.16
8294;BME280;4185;41.506;24.938;2022-11-20T02:08:37;93259.91;;;17.36;62.97
8294;BME280;4185;41.506;24.938;2022-11-20T02:11:06;93264.25;;;17.31;63.28
8294;BME280;4185;41.506;24.938;2022-11-20T02:13:33;93237.13;;;17.28;63.50
8294;BME280;4185;41.506;24.938;2022-11-20T02:16:10;93261.97;;;17.22;63.44
8294;BME280;4185;41.506;24.938;2022-11-20T02:18:38;93239.69;;;17.26;63.27
8294;BME280;4185;41.506;24.938;2022-11-20T02:21:07;93245.50;;;17.22;63.22
8294;BME280;4185;41.506;24.938;2022-11-20T02:23:38;93221.66;;;17.17;63.73
8294;BME280;4185;41.506;24.938;2022-11-20T02:26:10;93231.78;;;17.22;63.27
8294;BME280;4185;41.506;24.938;2022-11-20T02:28:39;93215.25;;;17.15;63.35
8294;BME280;4185;41.506;24.938;2022-11-20T02:31:06;93217.34;;;17.22;63.49
8294;BME280;4185;41.506;24.938;2022-11-20T02:33:33;93215.31;;;17.22;63.52
8294;BME280;4185;41.506;24.938;2022-11-20T02:36:00;93217.47;;;17.16;64.08
8294;BME280;4185;41.506;24.938;2022-11-20T02:38:27;93240.88;;;17.17;64.21
8294;BME280;4185;41.506;24.938;2022-11-20T02:40:53;93207.59;;;17.21;64.38
8294;BME280;4185;41.506;24.938;2022-11-20T02:43:22;93224.63;;;17.19;64.69
8294;BME280;4185;41.506;24.938;2022-11-20T02:45:49;93213.97;;;17.16;64.80
8294;BME280;4185;41.506;24.938;2022-11-20T02:48:16;93216.72;;;17.16;65.19
8294;BME280;4185;41.506;24.938;2022-11-20T02:50:42;93219.03;;;17.12;65.47
8294;BME280;4185;41.506;24.938;2022-11-20T02:53:09;93221.28;;;17.13;65.49
8294;BME280;4185;41.506;24.938;2022-11-20T02:55:36;93221.59;;;17.10;66.22
8294;BME280;4185;41.506;24.938;2022-11-20T02:58:03;93212.09;;;17.11;66.37
8294;BME280;4185;41.506;24.938;2022-11-20T03:00:31;93209.56;;;17.13;66.32
8294;BME280;4185;41.506;24.938;2022-11-20T03:02:58;93212.97;;;17.05;66.48
8294;BME280;4185;41.506;24.938;2022-11-20T03:05:25;93217.31;;;17.01;66.74
8294;BME280;4185;41.506;24.938;2022-11-20T03:07:52;93218.44;;;17.05;67.00
8294;BME280;4185;41.506;24.938;2022-11-20T03:10:19;93220.88;;;17.09;66.43
8294;BME280;4185;41.506;24.938;2022-11-20T03:12:46;93221.94;;;17.06;66.60
8294;BME280;4185;41.506;24.938;2022-11-20T03:15:12;93217.25;;;17.14;66.56
8294;BME280;4185;41.506;24.938;2022-11-20T03:17:41;93227.47;;;17.14;66.41
8294;BME280;4185;41.506;24.938;2022-11-20T03:20:08;93230.03;;;17.12;66.82
8294;BME280;4185;41.506;24.938;2022-11-20T03:22:35;93217.16;;;17.06;67.03
8294;BME280;4185;41.506;24.938;2022-11-20T03:25:03;93206.72;;;17.05;67.32
8294;BME280;4185;41.506;24.938;2022-11-20T03:27:32;93206.00;;;17.04;67.67
8294;BME280;4185;41.506;24.938;2022-11-20T03:29:59;93207.47;;;17.05;67.63
8294;BME280;4185;41.506;24.938;2022-11-20T03:32:26;93206.00;;;17.04;68.14
8294;BME280;4185;41.506;24.938;2022-11-20T03:34:54;93205.59;;;17.00;68.10
8294;BME280;4185;41.506;24.938;2022-11-20T03:37:21;93214.16;;;16.97;68.43
8294;BME280;4185;41.506;24.938;2022-11-20T03:39:48;93205.72;;;16.95;68.91
8294;BME280;4185;41.506;24.938;2022-11-20T03:42:15;93206.44;;;16.95;68.85
8294;BME280;4185;41.506;24.938;2022-11-20T03:44:55;93210.06;;;16.90;71.06
8294;BME280;4185;41.506;24.938;2022-11-20T03:47:22;93214.75;;;16.82;71.04
8294;BME280;4185;41.506;24.938;2022-11-20T03:49:49;93222.00;;;16.80;71.68
8294;BME280;4185;41.506;24.938;2022-11-20T03:52:17;93226.75;;;16.79;72.35
8294;BME280;4185;41.506;24.938;2022-11-20T03:54:44;93215.38;;;16.75;72.63
8294;BME280;4185;41.506;24.938;2022-11-20T03:57:11;93200.53;;;16.71;73.30
8294;BME280;4185;41.506;24.938;2022-11-20T03:59:37;93216.03;;;16.68;73.00
8294;BME280;4185;41.506;24.938;2022-11-20T04:02:04;93201.91;;;16.64;73.81
8294;BME280;4185;41.506;24.938;2022-11-20T04:04:31;93200.22;;;16.61;73.69
8294;BME280;4185;41.506;24.938;2022-11-20T04:06:58;93189.25;;;16.61;73.71
8294;BME280;4185;41.506;24.938;2022-11-20T04:09:26;93180.81;;;16.59;74.51
8294;BME280;4185;41.506;24.938;2022-11-20T04:11:53;93200.16;;;16.54;74.92
8294;BME280;4185;41.506;24.938;2022-11-20T04:14:20;93224.63;;;16.52;75.19
8294;BME280;4185;41.506;24.938;2022-11-20T04:16:47;93207.00;;;16.47;75.26
8294;BME280;4185;41.506;24.938;2022-11-20T04:19:15;93223.78;;;16.44;75.62
8294;BME280;4185;41.506;24.938;2022-11-20T04:21:43;93201.19;;;16.38;75.52
8294;BME280;4185;41.506;24.938;2022-11-20T04:24:10;93190.34;;;16.32;75.04
8294;BME280;4185;41.506;24.938;2022-11-20T04:26:39;93214.38;;;16.39;74.98
8294;BME280;4185;41.506;24.938;2022-11-20T04:29:06;93208.69;;;16.37;75.70
8294;BME280;4185;41.506;24.938;2022-11-20T04:31:34;93207.22;;;16.36;75.50
8294;BME280;4185;41.506;24.938;2022-11-20T04:34:02;93204.69;;;16.38;74.99
8294;BME280;4185;41.506;24.938;2022-11-20T04:36:30;93194.78;;;16.35;74.98
8294;BME280;4185;41.506;24.938;2022-11-20T04:38:58;93214.59;;;16.41;74.96
8294;BME280;4185;41.506;24.938;2022-11-20T04:41:27;93214.59;;;16.41;74.90
8294;BME280;4185;41.506;24.938;2022-11-20T04:43:58;93197.94;;;16.39;74.39
8294;BME280;4185;41.506;24.938;2022-11-20T04:46:28;93199.00;;;16.36;74.42
8294;BME280;4185;41.506;24.938;2022-11-20T04:48:55;93197.41;;;16.41;73.85
8294;BME280;4185;41.506;24.938;2022-11-20T04:51:22;93187.38;;;16.43;73.90
8294;BME280;4185;41.506;24.938;2022-11-20T04:53:49;93175.59;;;16.48;72.72
8294;BME280;4185;41.506;24.938;2022-11-20T04:56:16;93175.47;;;16.41;73.58
8294;BME280;4185;41.506;24.938;2022-11-20T04:58:43;93187.50;;;16.38;74.25
8294;BME280;4185;41.506;24.938;2022-11-20T05:01:12;93176.84;;;16.34;74.44
8294;BME280;4185;41.506;24.938;2022-11-20T05:03:40;93161.47;;;16.31;74.23
8294;BME280;4185;41.506;24.938;2022-11-20T05:06:08;93146.81;;;16.29;74.51
8294;BME280;4185;41.506;24.938;2022-11-20T05:08:35;93133.56;;;16.20;74.54
8294;BME280;4185;41.506;24.938;2022-11-20T05:11:04;93154.31;;;16.15;74.87
8294;BME280;4185;41.506;24.938;2022-11-20T05:13:31;93163.81;;;16.14;75.36
8294;BME280;4185;41.506;24.938;2022-11-20T05:16:01;93170.34;;;16.11;75.07
8294;BME280;4185;41.506;24.938;2022-11-20T05:18:29;93159.19;;;16.09;74.71
8294;BME280;4185;41.506;24.938;2022-11-20T05:20:57;93174.34;;;16.10;74.32
8294;BME280;4185;41.506;24.938;2022-11-20T05:23:24;93162.25;;;16.06;74.15
8294;BME280;4185;41.506;24.938;2022-11-20T05:25:52;93164.25;;;16.05;74.36
8294;BME280;4185;41.506;24.938;2022-11-20T05:28:20;93157.09;;;16.02;74.45
8294;BME280;4185;41.506;24.938;2022-11-20T05:30:47;93166.97;;;16.05;74.69
8294;BME280;4185;41.506;24.938;2022-11-20T05:33:14;93160.78;;;16.05;74.28
8294;BME280;4185;41.506;24.938;2022-11-20T05:35:42;93158.25;;;16.07;74.43
8294;BME280;4185;41.506;24.938;2022-11-20T05:38:10;93154.56;;;16.04;74.74
8294;BME280;4185;41.506;24.938;2022-11-20T05:40:36;93164.56;;;16.02;74.79
8294;BME280;4185;41.506;24.938;2022-11-20T05:43:03;93161.31;;;16.03;74.80
8294;BME280;4185;41.506;24.938;2022-11-20T05:45:30;93187.13;;;16.08;74.82
8294;BME280;4185;41.506;24.938;2022-11-20T05:47:58;93178.13;;;16.20;73.57
8294;BME280;4185;41.506;24.938;2022-11-20T05:50:25;93176.44;;;16.30;73.36
8294;BME280;4185;41.506;24.938;2022-11-20T05:52:53;93181.94;;;16.30;73.22
8294;BME280;4185;41.506;24.938;2022-11-20T05:55:20;93180.44;;;16.29;73.10
8294;BME280;4185;41.506;24.938;2022-11-20T05:57:47;93186.34;;;16.33;73.68
8294;BME280;4185;41.506;24.938;2022-11-20T06:00:15;93194.78;;;16.35;73.69
8294;BME280;4185;41.506;24.938;2022-11-20T06:02:42;93196.34;;;16.31;73.48
8294;BME280;4185;41.506;24.938;2022-11-20T06:05:08;93202.69;;;16.26;74.02
8294;BME280;4185;41.506;24.938;2022-11-20T06:07:35;93220.16;;;16.36;73.04
8294;BME280;4185;41.506;24.938;2022-11-20T06:10:04;93208.34;;;16.41;72.96
8294;BME280;4185;41.506;24.938;2022-11-20T06:12:31;93218.19;;;16.36;73.29
8294;BME280;4185;41.506;24.938;2022-11-20T06:14:59;93208.69;;;16.37;73.34
8294;BME280;4185;41.506;24.938;2022-11-20T06:17:26;93218.59;;;16.40;72.54
8294;BME280;4185;41.506;24.938;2022-11-20T06:19:53;93207.22;;;16.36;73.05
8294;BME280;4185;41.506;24.938;2022-11-20T06:22:19;93201.53;;;16.34;73.70
8294;BME280;4185;41.506;24.938;2022-11-20T06:24:47;93211.41;;;16.37;73.26
8294;BME280;4185;41.506;24.938;2022-11-20T06:27:15;93224.41;;;16.37;73.80
8294;BME280;4185;41.506;24.938;2022-11-20T06:29:42;93217.03;;;16.32;74.10
8294;BME280;4185;41.506;24.938;2022-11-20T06:32:09;93210.28;;;16.33;74.02
8294;BME280;4185;41.506;24.938;2022-11-20T06:34:36;93203.31;;;16.32;74.19
8294;BME280;4185;41.506;24.938;2022-11-20T06:37:02;93211.88;;;16.28;74.75
8294;BME280;4185;41.506;24.938;2022-11-20T06:39:29;93215.84;;;16.27;74.90
8294;BME280;4185;41.506;24.938;2022-11-20T06:41:56;93214.16;;;16.37;74.58
8294;BME280;4185;41.506;24.938;2022-11-20T06:44:25;93216.91;;;16.37;74.71
8294;BME280;4185;41.506;24.938;2022-11-20T06:46:52;93221.13;;;16.38;74.94
8294;BME280;4185;41.506;24.938;2022-11-20T06:49:18;93216.41;;;16.39;75.34
8294;BME280;4185;41.506;24.938;2022-11-20T06:51:45;93223.34;;;16.40;74.86
8294;BME280;4185;41.506;24.938;2022-11-20T06:54:12;93232.50;;;16.42;75.20
8294;BME280;4185;41.506;24.938;2022-11-20T06:56:39;93237.59;;;16.38;76.07
8294;BME280;4185;41.506;24.938;2022-11-20T06:59:06;93225.97;;;16.32;76.60
8294;BME280;4185;41.506;24.938;2022-11-20T07:01:35;93244.44;;;16.32;76.80
8294;BME280;4185;41.506;24.938;2022-11-20T07:04:02;93231.97;;;16.31;77.21
8294;BME280;4185;41.506;24.938;2022-11-20T07:06:29;93229.78;;;16.29;77.54
8294;BME280;4185;41.506;24.938;2022-11-20T07:08:56;93223.56;;;16.29;77.34
8294;BME280;4185;41.506;24.938;2022-11-20T07:11:23;93238.00;;;16.29;78.02
8294;BME280;4185;41.506;24.938;2022-11-20T07:13:50;93220.31;;;16.30;78.00
8294;BME280;4185;41.506;24.938;2022-11-20T07:16:17;93227.69;;;16.35;76.93
8294;BME280;4185;41.506;24.938;2022-11-20T07:18:45;93220.69;;;16.34;78.17
8294;BME280;4185;41.506;24.938;2022-11-20T07:21:12;93225.66;;;16.36;77.82
8294;BME280;4185;41.506;24.938;2022-11-20T07:23:38;93225.44;;;16.34;78.31
8294;BME280;4185;41.506;24.938;2022-11-20T07:26:06;93223.44;;;16.34;78.81
8294;BME280;4185;41.506;24.938;2022-11-20T07:28:33;93219.78;;;16.32;78.29
8294;BME280;4185;41.506;24.938;2022-11-20T07:31:00;93215.22;;;16.34;78.06
8294;BME280;4185;41.506;24.938;2022-11-20T07:33:27;93221.78;;;16.31;78.11
8294;BME280;4185;41.506;24.938;2022-11-20T07:35:55;93207.84;;;16.29;78.76
8294;BME280;4185;41.506;24.938;2022-11-20T07:38:24;93229.78;;;16.29;78.39
8294;BME280;4185;41.506;24.938;2022-11-20T07:40:53;93229.78;;;16.29;78.67
8294;BME280;4185;41.506;24.938;2022-11-20T07:43:20;93221.25;;;16.33;77.03
8294;BME280;4185;41.506;24.938;2022-11-20T07:45:47;93215.22;;;16.34;77.27
8294;BME280;4185;41.506;24.938;2022-11-20T07:48:14;93223.13;;;16.38;78.64
8294;BME280;4185;41.506;24.938;2022-11-20T07:50:41;93219.63;;;16.37;76.87
8294;BME280;4185;41.506;24.938;2022-11-20T07:53:09;93224.41;;;16.37;77.80
8294;BME280;4185;41.506;24.938;2022-11-20T07:55:36;93222.38;;;16.37;78.12
8294;BME280;4185;41.506;24.938;2022-11-20T07:58:02;93224.41;;;16.37;77.69
8294;BME280;4185;41.506;24.938;2022-11-20T08:00:29;93223.78;;;16.44;76.56
8294;BME280;4185;41.506;24.938;2022-11-20T08:02:56;93233.69;;;16.47;75.85
8294;BME280;4185;41.506;24.938;2022-11-20T08:05:23;93228.94;;;16.47;75.61
8294;BME280;4185;41.506;24.938;2022-11-20T08:07:50;93233.38;;;16.50;75.61
8294;BME280;4185;41.506;24.938;2022-11-20T08:10:18;93230.81;;;16.52;75.70
8294;BME280;4185;41.506;24.938;2022-11-20T08:12:46;93228.41;;;16.62;73.63
8294;BME280;4185;41.506;24.938;2022-11-20T08:15:47;93215.22;;;16.60;75.10
8294;BME280;4185;41.506;24.938;2022-11-20T08:18:14;93204.25;;;16.60;75.26
8294;BME280;4185;41.506;24.938;2022-11-20T08:20:43;93201.91;;;16.64;74.58
8294;BME280;4185;41.506;24.938;2022-11-20T08:23:09;93191.78;;;16.72;74.41
8294;BME280;4185;41.506;24.938;2022-11-20T08:25:38;93178.44;;;16.76;74.63
8294;BME280;4185;41.506;24.938;2022-11-20T08:28:06;93191.25;;;16.74;73.75
8294;BME280;4185;41.506;24.938;2022-11-20T08:30:34;93187.63;;;16.79;74.39
8294;BME280;4185;41.506;24.938;2022-11-20T08:33:02;93192.91;;;16.77;73.70
8294;BME280;4185;41.506;24.938;2022-11-20T08:35:32;93198.28;;;16.82;73.98
8294;BME280;4185;41.506;24.938;2022-11-20T08:37:59;93200.47;;;16.84;73.13
8294;BME280;4185;41.506;24.938;2022-11-20T08:40:26;93216.19;;;16.83;73.48
8294;BME280;4185;41.506;24.938;2022-11-20T08:42:54;93196.34;;;16.90;72.44
8294;BME280;4185;41.506;24.938;2022-11-20T08:45:21;93198.00;;;16.93;72.00
8294;BME280;4185;41.506;24.938;2022-11-20T08:47:49;93184.50;;;16.95;72.28
8294;BME280;4185;41.506;24.938;2022-11-20T08:50:16;93193.16;;;16.99;72.40
8294;BME280;4185;41.506;24.938;2022-11-20T08:52:44;93187.84;;;17.01;71.72
8294;BME280;4185;41.506;24.938;2022-11-20T08:55:11;93189.72;;;17.06;71.80
8294;BME280;4185;41.506;24.938;2022-11-20T08:57:38;93202.56;;;17.12;70.56
8294;BME280;4185;41.506;24.938;2022-11-20T09:00:07;93170.47;;;17.20;70.51
8294;BME280;4185;41.506;24.938;2022-11-20T09:02:35;93185.84;;;17.23;69.94
8294;BME280;4185;41.506;24.938;2022-11-20T09:05:02;93189.59;;;17.33;68.25
8294;BME280;4185;41.506;24.938;2022-11-20T09:07:29;93159.28;;;17.38;67.32
8294;BME280;4185;41.506;24.938;2022-11-20T09:09:56;93169.50;;;17.38;68.50
8294;BME280;4185;41.506;24.938;2022-11-20T09:12:23;93179.63;;;17.43;67.56
8294;BME280;4185;41.506;24.938;2022-11-20T09:14:50;93169.06;;;17.47;66.08
8294;BME280;4185;41.506;24.938;2022-11-20T09:17:18;93157.41;;;17.54;66.13
8294;BME280;4185;41.506;24.938;2022-11-20T09:19:46;93144.19;;;17.52;66.72
8294;BME280;4185;41.506;24.938;2022-11-20T09:22:13;93147.41;;;17.64;66.62
8294;BME280;4185;41.506;24.938;2022-11-20T09:24:40;93151.06;;;17.66;66.11
8294;BME280;4185;41.506;24.938;2022-11-20T09:27:08;93159.19;;;17.72;66.24
8294;BME280;4185;41.506;24.938;2022-11-20T09:29:35;93136.09;;;17.67;64.41
8294;BME280;4185;41.506;24.938;2022-11-20T09:32:03;93146.53;;;17.69;65.04
8294;BME280;4185;41.506;24.938;2022-11-20T09:34:32;93149.50;;;17.78;64.86
8294;BME280;4185;41.506;24.938;2022-11-20T09:36:59;93140.19;;;17.81;66.27
8294;BME280;4185;41.506;24.938;2022-11-20T09:39:26;93164.97;;;17.89;62.45
8294;BME280;4185;41.506;24.938;2022-11-20T09:42:10;93152.69;;;17.90;62.73
8294;BME280;4185;41.506;24.938;2022-11-20T09:44:51;93144.66;;;17.92;62.61
8294;BME280;4185;41.506;24.938;2022-11-20T09:47:31;93158.19;;;17.90;62.39
8294;BME280;4185;41.506;24.938;2022-11-20T09:50:14;93139.69;;;17.90;64.01
8294;BME280;4185;41.506;24.938;2022-11-20T09:52:55;93145.34;;;17.85;63.20
8294;BME280;4185;41.506;24.938;2022-11-20T09:55:25;93142.38;;;17.83;62.84
8294;BME280;4185;41.506;24.938;2022-11-20T09:57:55;93156.31;;;17.85;62.89
8294;BME280;4185;41.506;24.938;2022-11-20T10:00:23;93151.50;;;17.78;62.45
8294;BME280;4185;41.506;24.938;2022-11-20T10:02:55;93138.38;;;17.84;62.50
8294;BME280;4185;41.506;24.938;2022-11-20T10:05:27;93155.03;;;18.14;62.51
8294;BME280;4185;41.506;24.938;2022-11-20T10:08:04;93128.09;;;18.12;61.89
8294;BME280;4185;41.506;24.938;2022-11-20T10:10:41;93134.91;;;18.26;61.89
8294;BME280;4185;41.506;24.938;2022-11-20T10:13:27;93125.69;;;18.16;61.14
8294;BME280;4185;41.506;24.938;2022-11-20T10:16:11;93135.78;;;18.14;62.09
8294;BME280;4185;41.506;24.938;2022-11-20T10:18:51;93147.66;;;18.09;61.62
8294;BME280;4185;41.506;24.938;2022-11-20T10:21:29;93132.00;;;18.24;60.78
8294;BME280;4185;41.506;24.938;2022-11-20T10:24:29;93128.28;;;18.22;60.30
8294;BME280;4185;41.506;24.938;2022-11-20T10:27:08;93132.88;;;18.55;59.29
8294;BME280;4185;41.506;24.938;2022-11-20T10:29:43;93120.81;;;18.88;58.42
8294;BME280;4185;41.506;24.938;2022-11-20T10:32:16;93115.53;;;19.13;57.52
8294;BME280;4185;41.506;24.938;2022-11-20T10:34:48;93107.28;;;19.05;57.07
8294;BME280;4185;41.506;24.938;2022-11-20T10:37:22;93098.81;;;19.18;57.23
8294;BME280;4185;41.506;24.938;2022-11-20T10:39:53;93100.66;;;19.08;57.42
8294;BME280;4185;41.506;24.938;2022-11-20T10:42:32;93111.50;;;18.99;58.02
8294;BME280;4185;41.506;24.938;2022-11-20T10:45:11;93103.94;;;18.84;59.11
8294;BME280;4185;41.506;24.938;2022-11-20T10:47:41;93098.47;;;19.07;59.47
8294;BME280;4185;41.506;24.938;2022-11-20T10:50:11;93099.91;;;18.93;58.87
8294;BME280;4185;41.506;24.938;2022-11-20T10:52:50;93091.47;;;18.83;59.08
8294;BME280;4185;41.506;24.938;2022-11-20T10:55:28;93089.06;;;18.80;58.74
8294;BME280;4185;41.506;24.938;2022-11-20T10:58:04;93098.41;;;18.69;58.57
8294;BME280;4185;41.506;24.938;2022-11-20T11:00:35;93085.91;;;18.61;59.81
8294;BME280;4185;41.506;24.938;2022-11-20T11:03:02;93078.25;;;18.67;59.55
8294;BME280;4185;41.506;24.938;2022-11-20T11:05:36;93055.69;;;18.68;59.40
8294;BME280;4185;41.506;24.938;2022-11-20T11:08:12;93052.94;;;18.98;58.33
8294;BME280;4185;41.506;24.938;2022-11-20T11:10:46;93052.41;;;19.22;58.24
8294;BME280;4185;41.506;24.938;2022-11-20T11:13:21;93063.22;;;19.05;58.36
8294;BME280;4185;41.506;24.938;2022-11-20T11:15:49;93057.72;;;18.90;58.88
8294;BME280;4185;41.506;24.938;2022-11-20T11:18:26;93064.69;;;18.91;58.71
8294;BME280;4185;41.506;24.938;2022-11-20T11:20:57;93043.41;;;19.29;57.31
8294;BME280;4185;41.506;24.938;2022-11-20T11:23:30;93057.53;;;19.26;57.37
8294;BME280;4185;41.506;24.938;2022-11-20T11:25:59;93044.34;;;20.02;55.28
8294;BME280;4185;41.506;24.938;2022-11-20T11:28:26;93045.94;;;20.52;53.57
8294;BME280;4185;41.506;24.938;2022-11-20T11:30:54;93054.19;;;20.27;53.80
8294;BME280;4185;41.506;24.938;2022-11-20T11:33:23;93055.78;;;19.83;55.21
8294;BME280;4185;41.506;24.938;2022-11-20T11:35:52;93046.88;;;19.45;56.06
8294;BME280;4185;41.506;24.938;2022-11-20T11:38:30;93040.81;;;19.31;55.45
8294;BME280;4185;41.506;24.938;2022-11-20T11:41:00;93041.38;;;19.07;56.87
8294;BME280;4185;41.506;24.938;2022-11-20T11:43:30;93036.78;;;18.95;57.84
8294;BME280;4185;41.506;24.938;2022-11-20T11:46:32;93034.97;;;18.97;57.77
8294;BME280;4185;41.506;24.938;2022-11-20T11:49:01;93048.53;;;18.95;57.82
8294;BME280;4185;41.506;24.938;2022-11-20T11:51:33;93043.38;;;18.84;58.00
8294;BME280;4185;41.506;24.938;2022-11-20T11:54:08;93056.03;;;18.72;58.16
8294;BME280;4185;41.506;24.938;2022-11-20T11:56:37;93046.50;;;18.73;58.31
8294;BME280;4185;41.506;24.938;2022-11-20T11:59:09;93058.44;;;18.76;57.93
8294;BME280;4185;41.506;24.938;2022-11-20T12:01:43;93037.16;;;18.76;58.37
8294;BME280;4185;41.506;24.938;2022-11-20T12:04:16;93043.22;;;18.82;58.17
8294;BME280;4185;41.506;24.938;2022-11-20T12:06:51;93031.66;;;18.84;57.96
8294;BME280;4185;41.506;24.938;2022-11-20T12:09:24;93040.09;;;18.93;57.73
8294;BME280;4185;41.506;24.938;2022-11-20T12:11:56;93039.38;;;19.00;57.44
8294;BME280;4185;41.506;24.938;2022-11-20T12:14:32;93030.75;;;19.04;57.50
8294;BME280;4185;41.506;24.938;2022-11-20T12:17:01;93024.50;;;19.03;57.62
8294;BME280;4185;41.506;24.938;2022-11-20T12:19:29;93027.63;;;19.07;57.84
8294;BME280;4185;41.506;24.938;2022-11-20T12:22:02;93032.00;;;19.40;56.44
8294;BME280;4185;41.506;24.938;2022-11-20T12:24:52;93035.34;;;19.09;56.75
8294;BME280;4185;41.506;24.938;2022-11-20T12:27:47;93040.09;;;18.93;57.53
8294;BME280;4185;41.506;24.938;2022-11-20T12:30:17;93043.75;;;18.81;58.23
8294;BME280;4185;41.506;24.938;2022-11-20T12:33:07;93034.22;;;18.74;57.69
8294;BME280;4185;41.506;24.938;2022-11-20T12:35:47;93044.84;;;18.78;57.92
8294;BME280;4185;41.506;24.938;2022-11-20T12:41:23;93034.22;;;18.89;58.47
8294;BME280;4185;41.506;24.938;2022-11-20T12:44:22;93034.22;;;18.89;57.49
8294;BME280;4185;41.506;24.938;2022-11-20T12:47:21;93038.63;;;18.85;57.00
8294;BME280;4185;41.506;24.938;2022-11-20T12:49:59;93038.81;;;18.87;57.07
8294;BME280;4185;41.506;24.938;2022-11-20T12:52:38;93045.25;;;18.82;57.14
8294;BME280;4185;41.506;24.938;2022-11-20T12:55:16;93034.97;;;18.82;57.34
8294;BME280;4185;41.506;24.938;2022-11-20T12:57:50;93026.16;;;18.91;56.35
8294;BME280;4185;41.506;24.938;2022-11-20T13:00:21;93021.56;;;20.41;52.77
8294;BME280;4185;41.506;24.938;2022-11-20T13:03:06;93016.75;;;19.55;54.39
8294;BME280;4185;41.506;24.938;2022-11-20T13:05:43;93033.47;;;19.11;55.23
8294;BME280;4185;41.506;24.938;2022-11-20T13:08:18;93021.22;;;18.82;56.24
8294;BME280;4185;41.506;24.938;2022-11-20T13:13:24;93025.94;;;18.59;57.50
8294;BME280;4185;41.506;24.938;2022-11-20T13:15:58;93028.69;;;18.52;57.85
8294;BME280;4185;41.506;24.938;2022-11-20T13:18:27;93036.41;;;18.53;58.11
8294;BME280;4185;41.506;24.938;2022-11-20T13:20:56;93034.56;;;18.56;57.72
8294;BME280;4185;41.506;24.938;2022-11-20T13:23:24;93031.63;;;18.61;57.15
8294;BME280;4185;41.506;24.938;2022-11-20T13:26:03;93028.34;;;18.55;57.63
8294;BME280;4185;41.506;24.938;2022-11-20T13:28:32;93016.56;;;18.47;58.00
8294;BME280;4185;41.506;24.938;2022-11-20T13:30:59;93013.63;;;18.45;57.48